createdAt,value
2018-09-14T00:00:41.144Z,21.20
2018-09-14T00:03:09.412Z,21.37
2018-09-14T00:05:37.840Z,19.07
2018-09-14T00:08:06.050Z,20.57
2018-09-14T00:10:34.304Z,21.33
2018-09-14T00:13:02.552Z,21.33
2018-09-14T00:15:30.735Z,21.60
2018-09-14T00:17:58.948Z,20.33
2018-09-14T00:20:27.354Z,22.70
2018-09-14T00:22:55.590Z,20.47
2018-09-14T00:25:23.788Z,22.33
2018-09-14T00:27:52.052Z,19.83
2018-09-14T00:30:20.268Z,20.67
2018-09-14T00:32:48.532Z,19.80
2018-09-14T00:35:16.748Z,21.13
2018-09-14T00:37:44.956Z,20.30
2018-09-14T00:40:13.164Z,20.87
2018-09-14T00:42:41.408Z,21.10
2018-09-14T00:45:09.585Z,19.53
2018-09-14T00:47:37.868Z,19.37
2018-09-14T00:50:06.459Z,19.43
2018-09-14T00:52:34.649Z,19.50
2018-09-14T00:55:02.895Z,18.53
2018-09-14T00:57:31.136Z,18.80
2018-09-14T00:59:59.359Z,20.20
2018-09-14T01:02:27.632Z,19.57
2018-09-14T01:04:55.812Z,18.50
2018-09-14T01:07:24.066Z,18.97
2018-09-14T01:09:52.292Z,18.30
2018-09-14T01:12:20.542Z,19.23
2018-09-14T01:14:48.720Z,19.50
2018-09-14T01:17:17.056Z,18.67
2018-09-14T01:19:45.244Z,18.17
2018-09-14T01:22:13.427Z,18.47
2018-09-14T01:24:41.703Z,18.10
2018-09-14T01:27:09.904Z,17.67
2018-09-14T01:29:38.176Z,17.60
2018-09-14T01:32:06.448Z,17.50
2018-09-14T01:34:34.771Z,17.50
2018-09-14T01:37:02.984Z,17.93
2018-09-14T01:39:31.460Z,16.83
2018-09-14T01:41:59.676Z,16.53
2018-09-14T01:44:27.933Z,17.13
2018-09-14T01:46:56.117Z,17.13
2018-09-14T01:49:24.362Z,15.40
2018-09-14T01:51:52.552Z,16.23
2018-09-14T01:54:20.817Z,16.53
2018-09-14T01:56:49.013Z,17.00
2018-09-14T01:59:17.288Z,15.77
2018-09-14T02:01:45.492Z,15.87
2018-09-14T02:04:13.724Z,16.30
2018-09-14T02:06:41.912Z,17.30
2018-09-14T02:09:11.015Z,16.70
2018-09-14T02:11:39.272Z,18.63
2018-09-14T02:14:07.649Z,16.13
2018-09-14T02:16:36.037Z,16.40
2018-09-14T02:19:04.282Z,15.57
2018-09-14T02:21:32.479Z,15.80
2018-09-14T02:24:00.793Z,15.13
2018-09-14T02:26:29.037Z,16.40
2018-09-14T02:28:57.220Z,15.30
2018-09-14T02:31:25.497Z,16.37
2018-09-14T02:33:53.707Z,15.47
2018-09-14T02:36:21.936Z,16.30
2018-09-14T02:38:50.154Z,17.87
2018-09-14T02:41:18.485Z,16.10
2018-09-14T02:43:46.937Z,17.70
2018-09-14T02:46:15.168Z,18.53
2018-09-14T02:48:43.390Z,16.87
2018-09-14T02:51:11.577Z,17.43
2018-09-14T02:53:39.911Z,18.07
2018-09-14T02:56:08.176Z,17.03
2018-09-14T02:58:36.429Z,16.47
2018-09-14T03:01:04.710Z,18.47
2018-09-14T03:03:32.940Z,17.23
2018-09-14T03:06:01.444Z,16.60
2018-09-14T03:08:29.642Z,16.77
2018-09-14T03:10:57.821Z,16.77
2018-09-14T03:13:26.050Z,17.07
2018-09-14T03:15:54.264Z,17.90
2018-09-14T03:18:22.440Z,16.60
2018-09-14T03:20:50.622Z,17.57
2018-09-14T03:23:18.972Z,16.27
2018-09-14T03:25:47.192Z,16.87
2018-09-14T03:28:15.404Z,17.73
2018-09-14T03:30:43.661Z,19.10
2018-09-14T03:33:11.901Z,18.07
2018-09-14T03:35:40.187Z,19.50
2018-09-14T03:38:08.460Z,17.43
2018-09-14T03:40:36.655Z,16.77
2018-09-14T03:43:04.903Z,18.17
2018-09-14T03:45:33.100Z,17.63
2018-09-14T03:48:01.305Z,17.27
2018-09-14T03:50:29.533Z,18.00
2018-09-14T03:52:57.752Z,19.10
2018-09-14T03:55:25.943Z,19.87
2018-09-14T03:57:54.157Z,17.50
2018-09-14T04:00:22.453Z,18.33
2018-09-14T04:02:50.712Z,16.30
2018-09-14T04:05:18.929Z,17.47
2018-09-14T04:07:47.342Z,19.10
2018-09-14T04:10:15.525Z,19.37
2018-09-14T04:12:43.740Z,17.67
2018-09-14T04:15:12.041Z,18.20
2018-09-14T04:17:40.287Z,17.80
2018-09-14T04:20:08.515Z,19.63
2018-09-14T04:22:36.740Z,16.17
2018-09-14T04:25:04.939Z,17.00
2018-09-14T04:27:33.174Z,18.03
2018-09-14T04:30:01.367Z,17.97
2018-09-14T04:32:29.567Z,18.47
2018-09-14T04:34:57.789Z,18.40
2018-09-14T04:37:26.008Z,17.60
2018-09-14T04:39:54.224Z,19.37
2018-09-14T04:42:22.451Z,17.63
2018-09-14T04:44:50.905Z,18.53
2018-09-14T04:47:19.188Z,18.43
2018-09-14T04:49:48.041Z,18.43
2018-09-14T04:52:16.264Z,21.12
2018-09-14T04:54:44.471Z,20.53
2018-09-14T04:57:12.708Z,18.83
2018-09-14T04:59:40.930Z,18.33
2018-09-14T05:02:09.158Z,17.57
2018-09-14T05:04:37.336Z,18.33
2018-09-14T05:07:05.614Z,18.13
2018-09-14T05:09:33.808Z,18.77
2018-09-14T05:12:02.056Z,19.07
2018-09-14T05:14:37.424Z,18.17
2018-09-14T05:17:05.798Z,18.77
2018-09-14T05:19:34.069Z,16.90
2018-09-14T05:22:02.482Z,21.00
2018-09-14T05:24:30.854Z,19.73
2018-09-14T05:27:00.143Z,19.20
2018-09-14T05:29:28.600Z,17.67
2018-09-14T05:31:57.100Z,18.07
2018-09-14T05:34:25.317Z,17.90
2018-09-14T05:36:53.860Z,17.37
2018-09-14T05:39:22.326Z,19.17
2018-09-14T05:41:50.743Z,20.43
2018-09-14T05:44:19.120Z,21.80
2018-09-14T05:46:47.506Z,18.80
2018-09-14T05:49:15.688Z,18.10
2018-09-14T05:51:43.951Z,19.03
2018-09-14T05:54:12.126Z,17.97
2018-09-14T05:56:40.345Z,18.00
2018-09-14T05:59:09.500Z,18.83
2018-09-14T06:01:37.937Z,17.97
2018-09-14T06:04:06.161Z,18.00
2018-09-14T06:06:34.452Z,17.77
2018-09-14T06:09:02.613Z,18.47
2018-09-14T06:11:30.842Z,17.67
2018-09-14T06:13:59.088Z,18.03
2018-09-14T06:16:27.561Z,16.60
2018-09-14T06:18:55.773Z,16.60
2018-09-14T06:21:24.091Z,16.40
2018-09-14T06:23:52.330Z,17.77
2018-09-14T06:26:20.535Z,16.40
2018-09-14T06:28:49.069Z,16.13
2018-09-14T06:31:17.267Z,15.87
2018-09-14T06:33:45.461Z,16.97
2018-09-14T06:36:13.683Z,16.40
2018-09-14T06:38:42.004Z,16.23
2018-09-14T06:41:10.219Z,15.93
2018-09-14T06:43:38.661Z,16.73
2018-09-14T06:46:07.117Z,16.37
2018-09-14T06:48:35.512Z,16.77
2018-09-14T06:51:03.920Z,16.30
2018-09-14T06:53:32.205Z,16.13
2018-09-14T06:56:00.479Z,16.03
2018-09-14T06:58:28.709Z,15.47
2018-09-14T07:00:56.901Z,16.30
2018-09-14T07:03:25.121Z,15.77
2018-09-14T07:05:53.473Z,15.53
2018-09-14T07:08:21.692Z,16.53
2018-09-14T07:11:18.701Z,16.50
2018-09-14T07:14:05.005Z,16.60
2018-09-14T07:16:33.316Z,16.73
2018-09-14T07:19:01.574Z,17.00
2018-09-14T07:21:29.741Z,14.87
2018-09-14T07:23:57.986Z,16.20
2018-09-14T07:26:26.225Z,17.03
2018-09-14T07:28:54.549Z,16.43
2018-09-14T07:31:22.706Z,16.50
2018-09-14T07:33:50.927Z,15.57
2018-09-14T07:36:19.180Z,16.80
2018-09-14T07:38:47.388Z,17.30
2018-09-14T07:41:15.592Z,17.17
2018-09-14T07:43:43.820Z,17.87
2018-09-14T07:46:12.012Z,19.13
2018-09-14T07:48:40.248Z,17.87
2018-09-14T07:51:08.432Z,18.60
2018-09-14T07:53:36.682Z,18.37
2018-09-14T07:56:04.892Z,18.80
2018-09-14T07:58:33.069Z,19.30
2018-09-14T08:01:01.446Z,21.90
2018-09-14T08:03:29.709Z,21.57
2018-09-14T08:05:57.930Z,23.00
2018-09-14T08:08:26.164Z,23.17
2018-09-14T08:10:54.444Z,23.63
2018-09-14T08:13:22.728Z,24.33
2018-09-14T08:15:51.672Z,24.43
2018-09-14T08:18:19.868Z,23.77
2018-09-14T08:20:48.089Z,25.20
2018-09-14T08:23:16.338Z,23.60
2018-09-14T08:25:44.512Z,25.50
2018-09-14T08:28:12.689Z,25.87
2018-09-14T08:30:40.891Z,25.77
2018-09-14T08:33:09.153Z,25.67
2018-09-14T08:35:37.328Z,25.17
2018-09-14T08:38:05.986Z,25.30
2018-09-14T08:40:34.177Z,25.70
2018-09-14T08:43:02.352Z,24.27
2018-09-14T08:45:30.559Z,24.20
2018-09-14T08:47:58.741Z,25.73
2018-09-14T08:50:26.884Z,27.60
2018-09-14T08:52:55.076Z,26.40
2018-09-14T08:55:23.330Z,24.87
2018-09-14T08:57:51.497Z,25.70
2018-09-14T09:00:23.579Z,23.83
2018-09-14T09:02:52.590Z,27.70
2018-09-14T09:05:20.872Z,28.27
2018-09-14T09:07:49.572Z,30.37
2018-09-14T09:10:17.812Z,27.80
2018-09-14T09:12:46.088Z,27.00
2018-09-14T09:15:14.308Z,26.17
2018-09-14T09:17:42.540Z,27.63
2018-09-14T09:20:10.725Z,26.23
2018-09-14T09:22:39.086Z,24.10
2018-09-14T09:25:07.301Z,27.07
2018-09-14T09:27:36.174Z,27.60
2018-09-14T09:30:04.432Z,26.30
2018-09-14T09:32:32.645Z,23.27
2018-09-14T09:35:00.828Z,23.27
2018-09-14T09:37:29.281Z,22.93
2018-09-14T09:39:57.461Z,23.90
2018-09-14T09:42:25.676Z,21.20
2018-09-14T09:44:53.966Z,20.60
2018-09-14T09:47:22.240Z,22.93
2018-09-14T09:49:50.413Z,25.47
2018-09-14T09:52:18.629Z,24.40
2018-09-14T09:54:46.824Z,25.20
2018-09-14T09:57:15.028Z,27.00
2018-09-14T09:59:43.232Z,24.43
2018-09-14T10:02:16.806Z,22.37
2018-09-14T10:04:50.281Z,17.00
2018-09-14T10:07:18.469Z,14.53
2018-09-14T10:09:46.666Z,16.50
2018-09-14T10:12:14.888Z,20.27
2018-09-14T10:14:43.292Z,18.23
2018-09-14T10:17:11.468Z,18.07
2018-09-14T10:19:39.787Z,16.57
2018-09-14T10:22:07.981Z,16.57
2018-09-14T10:24:36.192Z,16.13
2018-09-14T10:27:04.424Z,15.53
2018-09-14T10:29:32.624Z,14.57
2018-09-14T10:32:00.888Z,15.77
2018-09-14T10:34:29.085Z,14.70
2018-09-14T10:36:57.350Z,14.77
2018-09-14T10:39:25.501Z,15.10
2018-09-14T10:41:53.794Z,13.90
2018-09-14T10:44:22.013Z,14.63
2018-09-14T10:46:50.265Z,12.57
2018-09-14T10:49:18.468Z,14.53
2018-09-14T10:51:46.881Z,13.77
2018-09-14T10:54:15.114Z,13.47
2018-09-14T10:56:43.649Z,15.83
2018-09-14T10:59:12.046Z,14.00
2018-09-14T11:01:40.253Z,14.13
2018-09-14T11:04:08.454Z,14.60
2018-09-14T11:06:36.816Z,12.70
2018-09-14T11:09:09.555Z,13.07
2018-09-14T11:11:37.772Z,12.40
2018-09-14T11:14:20.481Z,13.07
2018-09-14T11:16:48.801Z,16.10
2018-09-14T11:19:18.216Z,16.03
2018-09-14T11:21:46.409Z,15.73
2018-09-14T11:24:23.743Z,15.60
2018-09-14T11:26:52.126Z,14.00
2018-09-14T11:29:20.392Z,14.50
2018-09-14T11:31:48.653Z,13.37
2018-09-14T11:34:17.229Z,13.37
2018-09-14T11:36:45.647Z,14.30
2018-09-14T11:39:14.130Z,17.30
2018-09-14T11:41:42.312Z,16.60
2018-09-14T11:44:10.536Z,17.37
2018-09-14T11:46:38.891Z,20.43
2018-09-14T11:49:07.108Z,18.67
2018-09-14T11:51:35.336Z,20.37
2018-09-14T11:54:03.625Z,18.60
2018-09-14T11:56:31.835Z,19.43
2018-09-14T11:59:00.049Z,17.97
2018-09-14T12:01:28.370Z,16.70
2018-09-14T12:03:56.485Z,15.67
2018-09-14T12:06:24.952Z,15.33
2018-09-14T12:08:53.264Z,14.70
2018-09-14T12:11:21.613Z,17.23
2018-09-14T12:13:49.921Z,15.83
2018-09-14T12:16:18.055Z,14.07
2018-09-14T12:18:46.240Z,16.00
2018-09-14T12:21:14.536Z,14.57
2018-09-14T12:23:42.768Z,14.10
2018-09-14T12:26:10.973Z,13.63
2018-09-14T12:28:39.242Z,13.10
2018-09-14T12:31:07.589Z,12.33
2018-09-14T12:33:35.800Z,10.67
2018-09-14T12:36:04.521Z,10.93
2018-09-14T12:38:32.741Z,10.43
2018-09-14T12:41:00.961Z,11.13
2018-09-14T12:43:29.184Z,11.50
2018-09-14T12:45:57.389Z,10.97
2018-09-14T12:48:25.922Z,13.10
2018-09-14T12:50:54.298Z,10.67
2018-09-14T12:53:22.652Z,10.10
2018-09-14T12:55:50.849Z,9.97
2018-09-14T12:58:19.083Z,10.10
2018-09-14T13:00:47.385Z,9.37
2018-09-14T13:03:15.585Z,10.20
2018-09-14T13:05:43.825Z,9.80
2018-09-14T13:08:12.539Z,11.37
2018-09-14T13:10:40.810Z,10.60
2018-09-14T13:13:08.979Z,9.90
2018-09-14T13:15:37.297Z,9.80
2018-09-14T13:18:05.516Z,10.90
2018-09-14T13:20:34.742Z,10.13
2018-09-14T13:23:02.989Z,9.03
2018-09-14T13:25:31.179Z,9.67
2018-09-14T13:28:00.113Z,9.50
2018-09-14T13:30:28.844Z,10.00
2018-09-14T13:32:57.571Z,10.67
2018-09-14T13:35:27.436Z,8.83
2018-09-14T13:37:59.171Z,9.70
2018-09-14T13:40:27.880Z,9.60
2018-09-14T13:43:00.197Z,9.57
2018-09-14T13:45:28.588Z,8.07
2018-09-14T13:47:57.486Z,8.70
2018-09-14T13:50:25.830Z,8.90
2018-09-14T13:52:54.110Z,9.63
2018-09-14T13:55:22.308Z,8.87
2018-09-14T13:57:51.067Z,9.13
2018-09-14T14:00:19.730Z,10.57
2018-09-14T14:02:47.980Z,9.63
2018-09-14T14:05:16.416Z,10.20
2018-09-14T14:07:44.876Z,10.57
2018-09-14T14:10:13.095Z,10.80
2018-09-14T14:12:41.352Z,10.20
2018-09-14T14:15:11.068Z,10.23
2018-09-14T14:17:39.567Z,10.33
2018-09-14T14:20:07.739Z,10.13
2018-09-14T14:22:36.019Z,9.20
2018-09-14T14:25:04.302Z,9.43
2018-09-14T14:27:32.519Z,9.60
2018-09-14T14:30:00.802Z,8.40
2018-09-14T14:32:29.029Z,9.70
2018-09-14T14:34:58.987Z,7.90
2018-09-14T14:37:27.315Z,8.50
2018-09-14T14:39:55.613Z,8.47
2018-09-14T14:42:23.853Z,8.43
2018-09-14T14:44:52.057Z,9.23
2018-09-14T14:47:20.448Z,9.20
2018-09-14T14:49:48.783Z,9.30
2018-09-14T14:52:17.012Z,9.13
2018-09-14T14:54:45.842Z,11.20
2018-09-14T14:57:14.425Z,10.47
2018-09-14T14:59:43.194Z,10.10
2018-09-14T15:02:12.212Z,10.63
2018-09-14T15:04:40.483Z,8.23
2018-09-14T15:07:08.869Z,7.67
2018-09-14T15:09:37.245Z,10.70
2018-09-14T15:12:05.705Z,10.20
2018-09-14T15:14:34.028Z,11.50
2018-09-14T15:17:02.260Z,10.70
2018-09-14T15:19:31.702Z,9.33
2018-09-14T15:22:00.099Z,8.27
2018-09-14T15:24:29.017Z,8.70
2018-09-14T15:26:58.401Z,9.03
2018-09-14T15:29:26.766Z,8.57
2018-09-14T15:31:55.279Z,7.90
2018-09-14T15:34:23.500Z,7.97
2018-09-14T15:36:52.219Z,8.73
2018-09-14T15:39:20.412Z,8.20
2018-09-14T15:41:48.866Z,7.83
2018-09-14T15:44:17.270Z,8.00
2018-09-14T15:46:45.576Z,8.47
2018-09-14T15:49:14.883Z,7.87
2018-09-14T15:51:43.530Z,7.40
2018-09-14T15:54:14.419Z,7.63
2018-09-14T15:56:43.672Z,7.70
2018-09-14T15:59:12.000Z,8.50
2018-09-14T16:01:40.460Z,8.40
2018-09-14T16:04:08.824Z,8.20
2018-09-14T16:06:38.260Z,7.27
2018-09-14T16:09:10.153Z,6.23
2018-09-14T16:11:39.497Z,6.47
2018-09-14T16:14:08.057Z,7.50
2018-09-14T16:16:36.665Z,6.90
2018-09-14T16:19:05.394Z,5.77
2018-09-14T16:21:37.212Z,6.00
2018-09-14T16:24:11.684Z,6.27
2018-09-14T16:26:40.076Z,6.07
2018-09-14T16:29:10.709Z,5.60
2018-09-14T16:31:39.472Z,6.27
2018-09-14T16:34:07.888Z,6.20
2018-09-14T16:36:36.153Z,5.20
2018-09-14T16:39:06.629Z,6.13
2018-09-14T16:41:34.840Z,5.57
2018-09-14T16:44:03.094Z,5.27
2018-09-14T16:46:31.433Z,5.30
2018-09-14T16:48:59.828Z,5.50
2018-09-14T16:51:28.109Z,5.70
2018-09-14T16:53:56.329Z,7.00
2018-09-14T16:56:24.547Z,7.23
2018-09-14T16:58:52.800Z,6.97
2018-09-14T17:01:21.038Z,7.60
2018-09-14T17:03:49.216Z,7.57
2018-09-14T17:06:17.437Z,7.77
2018-09-14T17:08:45.666Z,7.27
2018-09-14T17:11:13.993Z,7.27
2018-09-14T17:13:42.389Z,7.27
2018-09-14T17:16:10.609Z,6.23
2018-09-14T17:18:38.904Z,7.03
2018-09-14T17:21:07.218Z,6.83
2018-09-14T17:23:35.442Z,6.97
2018-09-14T17:26:03.633Z,7.57
2018-09-14T17:28:31.897Z,6.60
2018-09-14T17:31:00.503Z,7.63
2018-09-14T17:33:28.896Z,7.63
2018-09-14T17:35:57.127Z,8.10
2018-09-14T17:38:25.357Z,7.63
2018-09-14T17:40:57.205Z,7.03
2018-09-14T17:43:25.477Z,7.70
2018-09-14T17:45:53.780Z,7.77
2018-09-14T17:48:22.032Z,7.80
2018-09-14T17:50:50.317Z,6.97
2018-09-14T17:53:18.741Z,7.80
2018-09-14T17:55:47.176Z,6.90
2018-09-14T17:58:15.491Z,6.77
2018-09-14T18:00:43.728Z,6.53
2018-09-14T18:03:12.060Z,6.23
2018-09-14T18:05:40.493Z,5.50
2018-09-14T18:08:08.839Z,6.70
2018-09-14T18:10:37.137Z,5.33
2018-09-14T18:13:05.713Z,5.83
2018-09-14T18:15:34.281Z,5.87
2018-09-14T18:18:02.582Z,5.97
2018-09-14T18:20:30.972Z,6.40
2018-09-14T18:22:59.549Z,5.77
2018-09-14T18:25:28.073Z,6.20
2018-09-14T18:27:56.329Z,5.87
2018-09-14T18:30:24.510Z,5.50
2018-09-14T18:32:52.676Z,5.83
2018-09-14T18:35:20.911Z,5.47
2018-09-14T18:37:49.212Z,5.97
2018-09-14T18:40:17.412Z,5.97
2018-09-14T18:42:45.706Z,6.30
2018-09-14T18:45:13.917Z,6.27
2018-09-14T18:47:42.089Z,6.50
2018-09-14T18:50:10.301Z,6.77
2018-09-14T18:52:38.561Z,6.43
2018-09-14T18:55:06.768Z,6.70
2018-09-14T18:57:35.040Z,7.63
2018-09-14T19:00:03.399Z,6.67
2018-09-14T19:02:31.670Z,7.30
2018-09-14T19:04:59.965Z,6.67
2018-09-14T19:07:28.226Z,7.33
2018-09-14T19:09:56.505Z,7.73
2018-09-14T19:12:25.264Z,7.83
2018-09-14T19:14:53.805Z,7.80
2018-09-14T19:17:22.268Z,7.77
2018-09-14T19:19:50.725Z,8.13
2018-09-14T19:22:19.138Z,7.93
2018-09-14T19:24:47.508Z,7.20
2018-09-14T19:27:15.837Z,7.20
2018-09-14T19:29:44.313Z,8.07
2018-09-14T19:32:12.973Z,8.13
2018-09-14T19:34:41.625Z,7.87
2018-09-14T19:37:09.821Z,8.17
2018-09-14T19:39:38.138Z,8.47
2018-09-14T19:42:06.717Z,8.63
2018-09-14T19:44:35.344Z,8.10
2018-09-14T19:47:03.924Z,8.43
2018-09-14T19:49:32.525Z,8.17
2018-09-14T19:52:01.136Z,7.83
2018-09-14T19:54:29.679Z,7.03
2018-09-14T19:56:57.906Z,8.63
2018-09-14T19:59:26.085Z,8.17
2018-09-14T20:01:54.846Z,8.70
2018-09-14T20:04:23.226Z,8.23
2018-09-14T20:06:51.476Z,8.03
2018-09-14T20:09:19.682Z,8.47
2018-09-14T20:11:48.080Z,7.70
2018-09-14T20:14:16.225Z,8.87
2018-09-14T20:16:44.475Z,8.97
2018-09-14T20:19:12.665Z,8.60
2018-09-14T20:21:40.884Z,7.70
2018-09-14T20:24:09.073Z,9.00
2018-09-14T20:26:37.284Z,9.20
2018-09-14T20:29:05.538Z,9.07
2018-09-14T20:31:33.977Z,8.20
2018-09-14T20:34:02.758Z,8.20
2018-09-14T20:36:31.113Z,9.33
2018-09-14T20:38:59.390Z,8.97
2018-09-14T20:41:28.495Z,9.33
2018-09-14T20:49:59.871Z,9.43
2018-09-14T20:52:29.361Z,9.03
2018-09-14T20:54:58.750Z,10.97
2018-09-14T20:57:27.207Z,12.10
2018-09-14T20:59:55.586Z,10.17
2018-09-14T21:02:24.125Z,9.20
2018-09-14T21:04:52.673Z,10.90
2018-09-14T21:07:21.978Z,11.60
2018-09-14T21:09:52.480Z,11.83
2018-09-14T21:12:20.986Z,12.53
2018-09-14T21:14:49.511Z,15.30
2018-09-14T21:17:18.139Z,13.40
2018-09-14T21:19:46.676Z,15.67
2018-09-14T21:22:15.177Z,13.00
2018-09-14T21:24:43.592Z,14.40
2018-09-14T21:27:12.133Z,12.63
2018-09-14T21:29:40.507Z,10.77
2018-09-14T21:46:05.014Z,12.00
2018-09-14T21:48:33.556Z,10.33
2018-09-14T21:51:03.070Z,10.80
2018-09-14T21:53:31.812Z,10.43
2018-09-14T21:56:02.304Z,10.00
2018-09-14T21:58:31.535Z,10.70
2018-09-14T22:01:10.451Z,10.53
2018-09-14T22:03:39.208Z,11.23
2018-09-14T22:06:12.781Z,10.67
2018-09-14T22:08:41.149Z,10.73
2018-09-14T22:11:09.507Z,9.17
2018-09-14T22:13:38.030Z,10.77
2018-09-14T22:16:07.383Z,11.57
2018-09-14T22:18:35.887Z,10.80
2018-09-14T22:21:04.548Z,10.07
2018-09-14T22:23:32.957Z,11.27
2018-09-14T22:26:01.376Z,10.87
2018-09-14T22:28:29.730Z,10.63
2018-09-14T22:30:59.195Z,10.47
2018-09-14T22:33:27.612Z,10.80
2018-09-14T22:35:55.965Z,11.50
2018-09-14T22:38:28.785Z,10.90
2018-09-14T22:40:57.590Z,11.33
2018-09-14T22:43:25.942Z,11.67
2018-09-14T22:45:54.334Z,12.17
2018-09-14T22:48:22.656Z,11.70
2018-09-14T22:50:50.981Z,11.70
2018-09-14T22:53:19.341Z,11.70
2018-09-14T22:55:47.822Z,12.40
2018-09-14T22:58:16.192Z,11.47
2018-09-14T23:00:49.818Z,11.83
2018-09-14T23:03:18.205Z,12.95
2018-09-14T23:05:46.633Z,11.40
2018-09-14T23:08:15.137Z,11.40
2018-09-14T23:10:43.545Z,11.63
2018-09-14T23:13:11.906Z,10.33
2018-09-14T23:15:44.865Z,11.80
2018-09-14T23:18:13.481Z,11.20
2018-09-14T23:20:41.792Z,12.70
2018-09-14T23:23:11.175Z,12.53
2018-09-14T23:25:39.529Z,11.20
2018-09-14T23:28:08.879Z,12.17
2018-09-14T23:30:37.353Z,12.47
2018-09-14T23:33:07.372Z,13.33
2018-09-14T23:35:35.856Z,11.40
2018-09-14T23:38:04.401Z,14.15
2018-09-14T23:40:37.031Z,12.80
2018-09-14T23:43:07.433Z,10.80
2018-09-14T23:45:39.910Z,11.73
2018-09-14T23:48:13.107Z,12.40
2018-09-14T23:50:43.504Z,12.33
2018-09-14T23:53:11.768Z,13.03
2018-09-14T23:55:40.158Z,10.93
2018-09-14T23:58:08.414Z,12.03
